createdAt,value
2022-11-22T00:01:43.475Z,2.80
2022-11-22T00:04:10.691Z,2.80
2022-11-22T00:06:37.830Z,3.17
2022-11-22T00:09:04.974Z,2.67
2022-11-22T00:11:32.133Z,2.92
2022-11-22T00:13:59.236Z,2.92
2022-11-22T00:16:26.417Z,3.00
2022-11-22T00:18:53.538Z,2.60
2022-11-22T00:21:20.651Z,2.90
2022-11-22T00:23:47.808Z,2.92
2022-11-22T00:26:15.026Z,2.92
2022-11-22T00:28:42.161Z,2.70
2022-11-22T00:31:09.296Z,2.97
2022-11-22T00:33:36.475Z,3.28
2022-11-22T00:36:03.629Z,2.83
2022-11-22T00:38:30.769Z,2.30
2022-11-22T00:40:57.862Z,2.60
2022-11-22T00:43:24.969Z,3.15
2022-11-22T00:45:52.122Z,2.85
2022-11-22T00:48:19.262Z,2.40
2022-11-22T00:50:47.774Z,2.60
2022-11-22T00:53:14.935Z,2.88
2022-11-22T00:55:42.076Z,2.30
2022-11-22T00:58:09.214Z,2.90
2022-11-22T01:00:36.380Z,2.30
2022-11-22T01:03:03.742Z,2.85
2022-11-22T01:05:30.868Z,2.30
2022-11-22T01:07:58.007Z,2.70
2022-11-22T01:10:25.146Z,2.97
2022-11-22T01:12:52.270Z,2.78
2022-11-22T01:15:19.425Z,2.70
2022-11-22T01:17:46.586Z,3.03
2022-11-22T01:20:13.859Z,2.25
2022-11-22T01:22:40.984Z,2.47
2022-11-22T01:25:08.518Z,2.20
2022-11-22T01:27:35.671Z,2.22
2022-11-22T01:30:02.859Z,2.70
2022-11-22T01:32:29.964Z,2.13
2022-11-22T01:34:57.095Z,2.35
2022-11-22T01:37:24.234Z,2.42
2022-11-22T01:39:51.381Z,2.30
2022-11-22T01:42:18.590Z,2.45
2022-11-22T01:44:47.717Z,2.10
2022-11-22T01:47:16.058Z,2.10
2022-11-22T01:50:01.208Z,2.40
2022-11-22T01:52:30.293Z,2.30
2022-11-22T01:54:59.028Z,2.10
2022-11-22T01:57:29.033Z,2.53
2022-11-22T01:59:58.800Z,2.30
2022-11-22T02:02:26.007Z,2.13
2022-11-22T02:04:55.147Z,2.10
2022-11-22T02:07:24.516Z,2.00
2022-11-22T02:09:52.405Z,2.03
2022-11-22T02:12:20.891Z,2.35
2022-11-22T02:14:48.411Z,2.00
2022-11-22T02:17:15.683Z,2.40
2022-11-22T02:19:44.221Z,2.03
2022-11-22T02:22:20.087Z,2.22
2022-11-22T02:24:51.370Z,2.00
2022-11-22T02:27:19.003Z,1.40
2022-11-22T02:29:46.274Z,1.70
2022-11-22T02:32:13.398Z,1.30
2022-11-22T02:34:47.807Z,1.20
2022-11-22T02:37:16.700Z,0.90
2022-11-22T02:39:45.440Z,1.13
2022-11-22T02:42:12.696Z,0.80
2022-11-22T02:44:40.262Z,0.75
2022-11-22T02:47:07.415Z,0.90
2022-11-22T02:49:34.552Z,0.90
2022-11-22T02:52:01.665Z,0.85
2022-11-22T02:54:28.831Z,0.80
2022-11-22T02:56:56.046Z,1.00
2022-11-22T02:59:23.191Z,1.20
2022-11-22T03:01:50.633Z,0.85
2022-11-22T03:04:27.347Z,0.90
2022-11-22T03:06:58.972Z,1.08
2022-11-22T03:09:26.810Z,0.90
2022-11-22T03:11:54.535Z,0.90
2022-11-22T03:14:21.731Z,0.90
2022-11-22T03:16:49.214Z,0.88
2022-11-22T03:19:16.337Z,0.75
2022-11-22T03:21:43.747Z,0.77
2022-11-22T03:24:11.399Z,0.93
2022-11-22T03:26:38.920Z,0.75
2022-11-22T03:29:06.200Z,0.90
2022-11-22T03:31:33.419Z,0.68
2022-11-22T03:34:00.515Z,0.80
2022-11-22T03:36:27.682Z,0.88
2022-11-22T03:38:54.807Z,0.60
2022-11-22T03:41:21.930Z,0.60
2022-11-22T03:43:49.068Z,0.80
2022-11-22T03:46:16.556Z,0.70
2022-11-22T03:48:43.702Z,1.00
2022-11-22T03:51:10.859Z,0.68
2022-11-22T03:53:38.337Z,1.05
2022-11-22T03:56:06.100Z,0.80
2022-11-22T03:58:33.686Z,0.73
2022-11-22T04:01:01.210Z,0.73
2022-11-22T04:03:28.607Z,0.82
2022-11-22T04:05:55.747Z,1.35
2022-11-22T04:08:22.880Z,0.88
2022-11-22T04:10:50.527Z,0.93
2022-11-22T04:13:18.257Z,0.77
2022-11-22T04:15:45.474Z,0.90
2022-11-22T04:18:13.393Z,0.90
2022-11-22T04:20:59.506Z,0.82
2022-11-22T04:23:32.214Z,1.10
2022-11-22T04:26:01.006Z,1.00
2022-11-22T04:28:47.100Z,0.90
2022-11-22T04:31:33.678Z,1.27
2022-11-22T04:34:00.806Z,0.93
2022-11-22T04:36:28.004Z,0.75
2022-11-22T04:38:55.146Z,1.13
2022-11-22T04:41:22.289Z,1.20
2022-11-22T04:44:08.183Z,0.77
2022-11-22T04:46:35.400Z,0.80
2022-11-22T04:49:02.536Z,1.45
2022-11-22T04:51:48.648Z,1.33
2022-11-22T04:54:15.774Z,0.98
2022-11-22T04:56:42.907Z,1.02
2022-11-22T04:59:10.049Z,0.70
2022-11-22T05:01:37.318Z,0.80
2022-11-22T05:04:04.508Z,0.90
2022-11-22T05:06:31.640Z,0.80
2022-11-22T05:08:58.778Z,0.98
2022-11-22T05:11:25.941Z,0.85
2022-11-22T05:13:53.143Z,0.98
2022-11-22T05:16:20.287Z,0.57
2022-11-22T05:18:59.200Z,0.77
2022-11-22T05:21:27.663Z,1.00
2022-11-22T05:23:54.836Z,0.80
2022-11-22T05:26:25.165Z,0.77
2022-11-22T05:28:52.413Z,0.60
2022-11-22T05:31:23.148Z,0.73
2022-11-22T05:33:51.578Z,0.80
2022-11-22T05:36:18.955Z,0.90
2022-11-22T05:38:46.145Z,1.10
2022-11-22T05:41:14.212Z,1.00
2022-11-22T05:43:41.827Z,0.90
2022-11-22T05:46:13.624Z,0.90
2022-11-22T05:48:42.126Z,1.25
2022-11-22T05:51:10.643Z,1.00
2022-11-22T05:53:38.236Z,0.90
2022-11-22T05:56:15.794Z,0.88
2022-11-22T05:58:43.401Z,0.90
2022-11-22T06:01:11.982Z,0.88
2022-11-22T06:03:39.384Z,0.73
2022-11-22T06:06:07.393Z,0.90
2022-11-22T06:08:35.406Z,1.25
2022-11-22T06:11:06.323Z,1.40
2022-11-22T06:13:34.526Z,1.00
2022-11-22T06:16:01.653Z,1.17
2022-11-22T06:18:28.875Z,1.02
2022-11-22T06:20:59.777Z,1.20
2022-11-22T06:23:26.977Z,1.23
2022-11-22T06:26:01.663Z,1.02
2022-11-22T06:28:32.503Z,1.20
2022-11-22T06:31:13.671Z,1.42
2022-11-22T06:33:41.447Z,1.58
2022-11-22T06:36:22.277Z,1.30
2022-11-22T06:38:49.900Z,1.50
2022-11-22T06:41:18.840Z,1.48
2022-11-22T06:43:49.089Z,1.40
2022-11-22T06:46:17.814Z,1.60
2022-11-22T06:48:45.037Z,1.65
2022-11-22T06:51:13.585Z,1.60
2022-11-22T06:53:49.255Z,1.60
2022-11-22T06:56:18.544Z,1.60
2022-11-22T06:58:46.138Z,2.13
2022-11-22T07:01:15.266Z,1.55
2022-11-22T07:03:43.026Z,1.67
2022-11-22T07:06:11.228Z,1.67
2022-11-22T07:08:38.691Z,2.03
2022-11-22T07:11:07.499Z,1.90
2022-11-22T07:13:34.993Z,1.80
2022-11-22T07:16:03.257Z,2.17
2022-11-22T07:18:30.482Z,1.90
2022-11-22T07:21:01.515Z,1.90
2022-11-22T07:23:28.801Z,1.83
2022-11-22T07:25:56.010Z,2.20
2022-11-22T07:28:23.301Z,2.17
2022-11-22T07:30:50.507Z,2.00
2022-11-22T07:33:17.615Z,1.83
2022-11-22T07:35:44.743Z,2.08
2022-11-22T07:38:11.864Z,2.05
2022-11-22T07:40:39.023Z,2.10
2022-11-22T07:43:06.176Z,2.75
2022-11-22T07:45:33.288Z,2.33
2022-11-22T07:48:00.931Z,2.40
2022-11-22T07:50:28.513Z,2.30
2022-11-22T07:52:59.074Z,2.03
2022-11-22T07:55:26.934Z,2.58
2022-11-22T07:57:54.581Z,2.20
2022-11-22T08:00:21.830Z,2.17
2022-11-22T08:02:48.998Z,2.63
2022-11-22T08:05:16.822Z,2.60
2022-11-22T08:07:50.900Z,2.50
2022-11-22T08:10:18.207Z,2.60
2022-11-22T08:12:45.795Z,2.17
2022-11-22T08:15:13.753Z,2.30
2022-11-22T08:17:40.974Z,2.97
2022-11-22T08:20:11.600Z,2.30
2022-11-22T08:22:39.558Z,2.50
2022-11-22T08:25:12.330Z,5.47
2022-11-22T08:27:43.575Z,3.33
2022-11-22T08:30:11.559Z,2.35
2022-11-22T08:32:38.788Z,2.42
2022-11-22T08:35:06.384Z,2.30
2022-11-22T08:37:33.629Z,2.83
2022-11-22T08:40:00.771Z,3.03
2022-11-22T08:42:27.896Z,2.72
2022-11-22T08:44:55.572Z,2.20
2022-11-22T08:47:22.972Z,2.30
2022-11-22T08:49:50.379Z,2.47
2022-11-22T08:52:17.533Z,2.13
2022-11-22T08:54:44.647Z,2.45
2022-11-22T08:57:11.788Z,2.28
2022-11-22T08:59:39.069Z,2.55
2022-11-22T09:02:06.637Z,2.35
2022-11-22T09:04:33.802Z,2.60
2022-11-22T09:09:48.283Z,2.22
2022-11-22T09:12:15.663Z,2.70
2022-11-22T09:14:42.826Z,2.25
2022-11-22T09:17:14.585Z,2.75
2022-11-22T09:19:44.591Z,2.33
2022-11-22T09:22:11.741Z,2.13
2022-11-22T09:24:38.871Z,3.10
2022-11-22T09:27:06.472Z,2.40
2022-11-22T09:29:33.673Z,2.30
2022-11-22T09:32:00.878Z,2.60
2022-11-22T09:34:27.966Z,2.10
2022-11-22T09:36:55.101Z,2.30
2022-11-22T09:39:22.208Z,2.80
2022-11-22T09:42:01.632Z,2.50
2022-11-22T09:44:40.841Z,2.95
2022-11-22T09:47:10.716Z,2.72
2022-11-22T09:49:46.831Z,2.47
2022-11-22T09:52:17.085Z,2.35
2022-11-22T09:54:50.840Z,1.88
2022-11-22T09:57:24.303Z,2.13
2022-11-22T09:59:55.000Z,2.33
2022-11-22T10:02:43.413Z,2.15
2022-11-22T10:05:21.691Z,2.35
2022-11-22T10:07:51.665Z,1.98
2022-11-22T10:10:23.276Z,2.10
2022-11-22T10:12:56.068Z,1.73
2022-11-22T10:15:32.451Z,1.92
2022-11-22T10:18:15.029Z,1.63
2022-11-22T10:20:48.463Z,1.75
2022-11-22T10:23:19.205Z,1.55
2022-11-22T10:25:57.794Z,1.83
2022-11-22T10:28:48.324Z,1.30
2022-11-22T10:31:15.441Z,1.70
2022-11-22T10:34:01.461Z,1.70
2022-11-22T10:36:37.745Z,1.70
2022-11-22T10:39:23.303Z,1.63
2022-11-22T10:42:09.206Z,1.60
2022-11-22T10:44:42.563Z,1.42
2022-11-22T10:47:09.729Z,1.50
2022-11-22T10:49:52.251Z,1.50
2022-11-22T10:52:19.368Z,1.63
2022-11-22T10:54:52.514Z,1.50
2022-11-22T10:57:38.149Z,1.30
2022-11-22T11:00:15.301Z,1.40
2022-11-22T11:02:57.569Z,2.08
2022-11-22T11:05:31.027Z,1.75
2022-11-22T11:08:15.241Z,1.42
2022-11-22T11:10:46.285Z,1.40
2022-11-22T11:13:13.451Z,1.70
2022-11-22T11:15:45.139Z,1.63
2022-11-22T11:18:16.022Z,1.70
2022-11-22T11:20:43.811Z,1.77
2022-11-22T11:23:15.797Z,2.60
2022-11-22T11:25:44.609Z,1.70
2022-11-22T11:28:22.395Z,1.75
2022-11-22T11:30:51.662Z,1.95
2022-11-22T11:33:29.958Z,1.50
2022-11-22T11:35:58.474Z,1.85
2022-11-22T11:38:29.702Z,1.45
2022-11-22T11:40:56.927Z,1.38
2022-11-22T11:43:24.909Z,1.70
2022-11-22T11:45:52.305Z,1.50
2022-11-22T11:48:51.874Z,1.75
2022-11-22T11:51:21.666Z,1.65
2022-11-22T11:53:53.655Z,1.45
2022-11-22T11:56:21.054Z,1.10
2022-11-22T11:58:54.878Z,1.63
2022-11-22T12:01:22.332Z,1.10
2022-11-22T12:03:57.714Z,1.30
2022-11-22T12:06:29.386Z,1.10
2022-11-22T12:08:57.751Z,1.38
2022-11-22T12:11:47.065Z,1.52
2022-11-22T12:14:20.270Z,1.30
2022-11-22T12:16:48.726Z,1.40
2022-11-22T12:19:25.023Z,1.55
2022-11-22T12:22:01.875Z,1.20
2022-11-22T12:25:16.469Z,1.50
2022-11-22T12:27:36.506Z,1.38
2022-11-22T12:30:03.798Z,1.38
2022-11-22T12:32:35.606Z,1.58
2022-11-22T12:35:17.179Z,1.80
2022-11-22T12:37:47.346Z,1.60
2022-11-22T12:40:18.756Z,1.40
2022-11-22T12:42:51.166Z,1.08
2022-11-22T12:45:38.578Z,1.00
2022-11-22T12:48:09.209Z,1.52
2022-11-22T12:50:42.263Z,1.40
2022-11-22T12:53:48.526Z,1.30
2022-11-22T12:56:26.219Z,1.60
2022-11-22T12:59:07.880Z,1.73
2022-11-22T13:01:38.155Z,1.92
2022-11-22T13:04:11.392Z,1.70
2022-11-22T13:06:46.179Z,1.00
2022-11-22T13:09:16.698Z,1.60
2022-11-22T13:11:45.083Z,1.30
2022-11-22T13:14:20.783Z,1.40
2022-11-22T13:16:49.928Z,1.60
2022-11-22T13:19:17.756Z,1.45
2022-11-22T13:22:00.541Z,1.50
2022-11-22T13:24:28.529Z,2.33
2022-11-22T13:27:13.059Z,1.70
2022-11-22T13:29:42.655Z,1.65
2022-11-22T13:32:12.739Z,2.05
2022-11-22T13:34:59.648Z,1.73
2022-11-22T13:37:27.820Z,1.90
2022-11-22T13:39:55.048Z,1.80
2022-11-22T13:42:27.103Z,1.40
2022-11-22T13:44:57.066Z,1.40
2022-11-22T13:47:24.200Z,1.67
2022-11-22T13:49:54.662Z,1.58
2022-11-22T13:52:22.243Z,1.75
2022-11-22T13:54:58.448Z,1.98
2022-11-22T13:57:25.703Z,1.77
2022-11-22T14:00:11.537Z,2.00
2022-11-22T14:02:39.802Z,1.73
2022-11-22T14:05:19.374Z,1.63
2022-11-22T14:07:50.064Z,2.00
2022-11-22T14:10:28.813Z,1.60
2022-11-22T14:12:55.961Z,1.88
2022-11-22T14:15:41.911Z,1.77
2022-11-22T14:18:27.882Z,1.80
2022-11-22T14:21:00.360Z,1.70
2022-11-22T14:23:30.563Z,2.10
2022-11-22T14:26:03.628Z,2.03
2022-11-22T14:28:42.560Z,2.20
2022-11-22T14:31:15.389Z,1.95
2022-11-22T14:34:02.459Z,2.30
2022-11-22T14:36:29.626Z,1.98
2022-11-22T14:38:56.773Z,1.80
2022-11-22T14:41:29.875Z,1.80
2022-11-22T14:44:10.270Z,2.53
2022-11-22T14:46:57.766Z,2.08
2022-11-22T14:49:24.853Z,2.50
2022-11-22T14:51:53.132Z,2.30
2022-11-22T14:54:22.379Z,2.15
2022-11-22T14:56:50.079Z,1.80
2022-11-22T14:59:37.393Z,4.47
2022-11-22T15:02:23.350Z,2.38
2022-11-22T15:09:21.984Z,1.70
2022-11-22T15:09:22.729Z,2.45
2022-11-22T15:10:55.057Z,2.13
2022-11-22T15:13:33.634Z,2.33
2022-11-22T15:58:30.221Z,2.13
2022-11-22T16:01:01.297Z,2.63
2022-11-22T16:03:50.537Z,2.28
2022-11-22T16:06:18.751Z,2.40
2022-11-22T16:08:49.361Z,2.95
2022-11-22T16:11:23.045Z,2.70
2022-11-22T16:13:50.191Z,2.65
2022-11-22T16:16:18.984Z,2.97
2022-11-22T16:18:48.263Z,2.90
2022-11-22T16:21:25.003Z,3.30
2022-11-22T16:24:11.497Z,2.70
2022-11-22T16:26:39.092Z,3.30
2022-11-22T16:29:26.317Z,3.35
2022-11-22T16:32:00.083Z,4.05
2022-11-22T16:34:27.228Z,2.95
2022-11-22T16:36:54.404Z,2.78
2022-11-22T16:39:21.578Z,2.75
2022-11-22T16:41:48.772Z,2.75
2022-11-22T16:44:17.831Z,2.92
2022-11-22T16:46:45.596Z,3.13
2022-11-22T16:49:20.259Z,3.00
2022-11-22T16:51:51.314Z,2.80
2022-11-22T16:54:19.385Z,2.85
2022-11-22T16:56:46.719Z,3.53
2022-11-22T16:59:14.109Z,3.47
2022-11-22T17:01:42.076Z,4.20
2022-11-22T17:04:16.897Z,4.30
2022-11-22T17:06:44.831Z,5.35
2022-11-22T17:09:12.435Z,4.50
2022-11-22T17:11:39.674Z,4.20
2022-11-22T17:14:06.766Z,4.80
2022-11-22T17:16:33.875Z,4.75
2022-11-22T17:19:01.014Z,3.75
2022-11-22T17:21:35.814Z,3.78
2022-11-22T17:24:34.381Z,3.70
2022-11-22T17:27:01.950Z,3.45
2022-11-22T17:29:49.232Z,3.95
2022-11-22T17:32:16.203Z,3.30
2022-11-22T17:34:43.334Z,3.85
2022-11-22T17:37:13.567Z,3.97
2022-11-22T17:39:41.127Z,3.35
2022-11-22T17:42:08.377Z,3.20
2022-11-22T17:44:35.479Z,3.72
2022-11-22T17:47:02.625Z,3.28
2022-11-22T17:49:30.048Z,3.03
2022-11-22T17:51:57.439Z,3.10
2022-11-22T17:54:24.575Z,3.67
2022-11-22T17:56:51.693Z,3.92
2022-11-22T17:59:18.831Z,3.67
2022-11-22T18:01:46.037Z,3.90
2022-11-22T18:04:14.692Z,4.70
2022-11-22T18:06:41.875Z,4.00
2022-11-22T18:09:09.049Z,3.92
2022-11-22T18:11:36.205Z,4.50
2022-11-22T18:14:03.333Z,4.50
2022-11-22T18:16:31.151Z,4.10
2022-11-22T18:18:59.337Z,4.38
2022-11-22T18:21:29.277Z,4.30
2022-11-22T18:23:57.357Z,4.28
2022-11-22T18:26:38.882Z,4.20
2022-11-22T18:31:54.659Z,4.47
2022-11-22T18:34:24.991Z,4.18
2022-11-22T18:37:00.348Z,4.65
2022-11-22T18:39:29.894Z,4.40
2022-11-22T18:41:57.308Z,4.93
2022-11-22T18:44:24.411Z,4.68
2022-11-22T18:46:51.626Z,4.97
2022-11-22T18:49:19.100Z,4.60
2022-11-22T18:51:46.381Z,4.82
2022-11-22T18:54:13.747Z,5.30
2022-11-22T18:56:41.196Z,5.25
2022-11-22T18:59:10.545Z,4.50
2022-11-22T19:01:37.838Z,4.82
2022-11-22T19:04:05.631Z,4.75
2022-11-22T19:06:32.741Z,5.00
2022-11-22T19:09:00.012Z,4.60
2022-11-22T19:11:29.352Z,4.38
2022-11-22T19:13:56.501Z,4.32
2022-11-22T19:16:24.399Z,3.78
2022-11-22T19:18:51.681Z,6.15
2022-11-22T19:21:19.902Z,7.10
2022-11-22T19:23:47.097Z,5.30
2022-11-22T19:26:15.550Z,5.57
2022-11-22T19:28:43.220Z,6.05
2022-11-22T19:31:11.565Z,5.13
2022-11-22T19:33:39.183Z,5.25
2022-11-22T19:36:08.027Z,7.07
2022-11-22T19:38:35.194Z,10.25
2022-11-22T19:41:07.693Z,5.85
2022-11-22T19:43:34.846Z,5.15
2022-11-22T19:46:02.300Z,5.28
2022-11-22T19:48:29.857Z,6.82
2022-11-22T19:50:57.165Z,5.03
2022-11-22T19:53:33.784Z,5.43
2022-11-22T19:56:08.509Z,6.18
2022-11-22T19:58:35.919Z,5.82
2022-11-22T20:01:05.617Z,6.65
2022-11-22T20:03:33.604Z,7.78
2022-11-22T20:06:01.573Z,9.85
2022-11-22T20:08:29.242Z,8.55
2022-11-22T20:11:02.986Z,8.23
2022-11-22T20:13:30.729Z,7.63
2022-11-22T20:15:58.253Z,7.32
2022-11-22T20:18:25.407Z,7.00
2022-11-22T20:20:52.627Z,5.63
2022-11-22T20:23:19.808Z,6.95
2022-11-22T20:25:46.961Z,6.57
2022-11-22T20:28:14.115Z,6.43
2022-11-22T20:30:41.312Z,6.90
2022-11-22T20:33:08.575Z,6.38
2022-11-22T20:35:35.747Z,6.28
2022-11-22T20:38:03.004Z,5.75
2022-11-22T20:40:30.127Z,6.13
2022-11-22T20:42:57.295Z,6.28
2022-11-22T20:45:24.407Z,6.60
2022-11-22T20:47:51.540Z,6.65
2022-11-22T20:50:19.903Z,6.13
2022-11-22T20:52:47.046Z,6.85
2022-11-22T20:55:14.217Z,5.82
2022-11-22T20:57:41.354Z,5.53
2022-11-22T21:00:08.950Z,5.93
2022-11-22T21:02:36.097Z,5.07
2022-11-22T21:05:03.273Z,5.03
2022-11-22T21:07:30.493Z,4.90
2022-11-22T21:09:57.637Z,4.70
2022-11-22T21:12:24.816Z,3.80
2022-11-22T21:14:53.782Z,3.78
2022-11-22T21:17:39.652Z,3.75
2022-11-22T21:20:08.436Z,3.80
2022-11-22T21:22:35.556Z,3.70
2022-11-22T21:25:02.681Z,4.13
2022-11-22T21:27:30.369Z,3.88
2022-11-22T21:29:57.471Z,3.63
2022-11-22T21:32:25.087Z,3.90
2022-11-22T21:34:52.201Z,3.40
2022-11-22T21:37:19.327Z,3.60
2022-11-22T21:39:46.469Z,3.55
2022-11-22T21:42:13.574Z,3.72
2022-11-22T21:44:40.729Z,3.70
2022-11-22T21:47:07.869Z,3.10
2022-11-22T21:49:35.085Z,3.15
2022-11-22T21:52:02.251Z,3.38
2022-11-22T21:54:29.540Z,3.38
2022-11-22T21:57:02.452Z,3.47
2022-11-22T21:59:30.270Z,3.45
2022-11-22T22:01:57.675Z,3.53
2022-11-22T22:04:24.912Z,3.22
2022-11-22T22:06:52.058Z,4.03
2022-11-22T22:09:19.186Z,3.60
2022-11-22T22:11:47.802Z,3.70
2022-11-22T22:14:15.204Z,3.50
2022-11-22T22:16:42.368Z,3.60
2022-11-22T22:19:10.031Z,3.72
2022-11-22T22:21:37.239Z,3.80
2022-11-22T22:24:04.495Z,3.50
2022-11-22T22:26:32.245Z,3.10
2022-11-22T22:28:59.381Z,3.38
2022-11-22T22:31:26.959Z,3.05
2022-11-22T22:33:55.162Z,3.33
2022-11-22T22:36:23.281Z,3.03
2022-11-22T22:38:50.660Z,3.15
2022-11-22T22:41:18.132Z,3.50
2022-11-22T22:43:46.346Z,3.20
2022-11-22T22:46:14.813Z,3.40
2022-11-22T22:48:42.490Z,3.20
2022-11-22T22:51:12.136Z,3.30
2022-11-22T22:53:39.636Z,2.95
2022-11-22T22:56:07.450Z,3.03
2022-11-22T22:58:34.992Z,2.65
2022-11-22T23:01:06.541Z,2.97
2022-11-22T23:03:33.752Z,3.00
2022-11-22T23:06:04.647Z,2.53
2022-11-22T23:08:31.780Z,2.90
2022-11-22T23:11:09.598Z,2.70
2022-11-22T23:13:37.359Z,3.15
2022-11-22T23:16:05.321Z,3.10
2022-11-22T23:18:35.260Z,2.65
2022-11-22T23:21:03.140Z,2.92
2022-11-22T23:23:30.341Z,2.60
2022-11-22T23:26:01.834Z,2.92
2022-11-22T23:28:29.810Z,3.17
2022-11-22T23:30:57.862Z,2.97
2022-11-22T23:33:25.156Z,3.10
2022-11-22T23:35:52.276Z,2.60
2022-11-22T23:38:19.393Z,2.63
2022-11-22T23:40:52.957Z,2.40
2022-11-22T23:43:20.116Z,2.05
2022-11-22T23:45:47.293Z,2.67
2022-11-22T23:48:15.453Z,2.20
2022-11-22T23:50:42.721Z,2.20
2022-11-22T23:53:09.915Z,2.38
2022-11-22T23:55:37.053Z,2.35
2022-11-22T23:58:04.191Z,2.10
